createdAt,value
2022-10-26T00:01:12.628Z,-28.4
2022-10-26T00:05:15.624Z,-28.2
2022-10-26T00:07:17.112Z,-28.5
2022-10-26T00:09:18.709Z,-28.5
2022-10-26T00:11:20.113Z,-28.3
2022-10-26T00:13:21.599Z,-28.2
2022-10-26T00:15:22.961Z,-28.3
2022-10-26T00:19:25.846Z,-28.4
2022-10-26T00:21:27.069Z,-28.4
2022-10-26T00:23:28.059Z,-28.4
2022-10-26T00:25:30.011Z,-28.4
2022-10-26T00:27:31.078Z,-28
2022-10-26T00:29:32.173Z,-28.1
2022-10-26T00:31:33.281Z,-28.3
2022-10-26T00:35:45.402Z,-28.4
2022-10-26T00:37:37.263Z,-28.6
2022-10-26T00:39:38.453Z,-28.5
2022-10-26T00:41:40.364Z,-28.1
2022-10-26T00:45:43.154Z,-28.2
2022-10-26T00:47:44.556Z,-28.4
2022-10-26T00:51:47.860Z,-28.5
2022-10-26T00:53:49.186Z,-28.4
2022-10-26T00:55:51.062Z,-28.3
2022-10-26T00:57:52.157Z,-28.3
2022-10-26T01:01:54.986Z,-28
2022-10-26T01:03:56.877Z,-28.3
2022-10-26T01:05:58.120Z,-28.3
2022-10-26T01:07:59.283Z,-28
2022-10-26T01:10:00.517Z,-28.3
2022-10-26T01:14:03.337Z,-28
2022-10-26T01:20:07.489Z,-28.2
2022-10-26T01:22:08.948Z,-28.2
2022-10-26T01:24:10.610Z,-28.3
2022-10-26T01:30:14.199Z,-28.2
2022-10-26T01:32:15.897Z,-28.4
2022-10-26T01:34:17.507Z,-28.4
2022-10-26T01:36:18.515Z,-28.2
2022-10-26T01:38:20.278Z,-28.1
2022-10-26T01:40:21.467Z,-28.2
2022-10-26T01:44:25.078Z,-28.2
2022-10-26T01:46:26.506Z,-28.5
2022-10-26T01:48:27.887Z,-28.4
2022-10-26T01:50:28.888Z,-28.3
2022-10-26T01:52:29.948Z,-28.3
2022-10-26T01:54:30.945Z,-28.3
2022-10-26T01:56:31.937Z,-28.2
2022-10-26T01:58:33.218Z,-28.4
2022-10-26T02:00:34.921Z,-28.4
2022-10-26T02:02:36.831Z,-28.2
2022-10-26T02:04:37.816Z,-28
2022-10-26T02:06:39.551Z,-28.3
2022-10-26T02:08:40.757Z,-28.4
2022-10-26T02:10:42.339Z,-28.3
2022-10-26T02:12:43.870Z,-28.6
2022-10-26T02:14:45.562Z,-28.4
2022-10-26T02:16:46.754Z,-28.5
2022-10-26T02:18:47.768Z,-28.3
2022-10-26T02:20:49.690Z,-28.4
2022-10-26T02:22:50.902Z,-28.3
2022-10-26T02:24:52.682Z,-28.3
2022-10-26T02:28:56.003Z,-28
2022-10-26T02:30:57.275Z,-28.5
2022-10-26T02:32:58.552Z,-28.2
2022-10-26T02:35:00.265Z,-28.2
2022-10-26T02:37:01.681Z,-28.4
2022-10-26T02:39:02.722Z,-28.3
2022-10-26T02:43:05.915Z,-28
2022-10-26T02:45:07.681Z,-28.3
2022-10-26T02:47:08.909Z,-28.6
2022-10-26T02:49:10.292Z,-28.3
2022-10-26T02:51:11.862Z,-28.4
2022-10-26T02:53:13.577Z,-28.4
2022-10-26T02:55:14.789Z,-28.3
2022-10-26T02:57:16.244Z,-28.3
2022-10-26T02:59:17.163Z,-28.4
2022-10-26T03:01:18.319Z,-28.4
2022-10-26T03:03:19.844Z,-28.3
2022-10-26T03:05:21.093Z,-28.4
2022-10-26T03:07:22.219Z,-28
2022-10-26T03:09:24.826Z,-28.4
2022-10-26T03:11:25.268Z,-27.9
2022-10-26T03:13:26.454Z,-28.3
2022-10-26T03:15:27.546Z,-28.3
2022-10-26T03:17:29.139Z,-28.4
2022-10-26T03:19:31.031Z,-28.3
2022-10-26T03:21:32.028Z,-28.3
2022-10-26T03:27:35.799Z,-28.3
2022-10-26T03:29:37.716Z,-28.4
2022-10-26T03:31:39.169Z,-28.3
2022-10-26T03:33:40.583Z,-28.4
2022-10-26T03:35:42.249Z,-28.2
2022-10-26T03:37:43.934Z,-28.3
2022-10-26T03:39:45.070Z,-28
2022-10-26T03:41:46.599Z,-28.3
2022-10-26T03:43:48.259Z,-28.4
2022-10-26T03:45:49.409Z,-28.3
2022-10-26T03:47:51.394Z,-28.2
2022-10-26T03:49:52.611Z,-28.4
2022-10-26T03:53:55.530Z,-28.1
2022-10-26T03:55:57.362Z,-28.3
2022-10-26T03:57:58.828Z,-28.4
2022-10-26T04:00:00.551Z,-28.3
2022-10-26T04:02:02.094Z,-28.5
2022-10-26T04:04:03.685Z,-28.3
2022-10-26T04:06:05.054Z,-28.3
2022-10-26T04:08:06.496Z,-28.3
2022-10-26T04:10:07.748Z,-28.2
2022-10-26T04:12:09.599Z,-28.3
2022-10-26T04:14:11.059Z,-28.3
2022-10-26T04:16:12.337Z,-28.5
2022-10-26T04:18:13.583Z,-28.6
2022-10-26T04:20:15.439Z,-28.4
2022-10-26T04:24:18.817Z,-28.3
2022-10-26T04:26:20.384Z,-28.5
2022-10-26T04:28:21.518Z,-28.3
2022-10-26T04:30:22.469Z,-28
2022-10-26T04:32:23.723Z,-28.4
2022-10-26T04:34:25.348Z,-28.4
2022-10-26T04:36:27.164Z,-28.3
2022-10-26T04:38:28.403Z,-28.3
2022-10-26T04:40:29.937Z,-28.2
2022-10-26T04:42:31.343Z,-28.4
2022-10-26T04:44:32.532Z,-28.4
2022-10-26T04:46:33.688Z,-28.5
2022-10-26T04:52:37.261Z,-28.3
2022-10-26T04:54:38.951Z,-28
2022-10-26T04:56:40.520Z,-28.4
2022-10-26T04:58:42.260Z,-28.5
2022-10-26T05:00:43.765Z,-28.3
2022-10-26T05:02:45.127Z,-28.2
2022-10-26T05:06:47.296Z,-28.2
2022-10-26T05:08:48.647Z,-28.5
2022-10-26T05:10:50.101Z,-28.3
2022-10-26T05:12:51.382Z,-28.3
2022-10-26T05:14:52.800Z,-28.6
2022-10-26T05:16:54.118Z,-28.5
2022-10-26T05:18:55.987Z,-28.2
2022-10-26T05:20:57.351Z,-28.4
2022-10-26T05:22:58.373Z,-28.5
2022-10-26T05:25:43.317Z,-28.5
2022-10-26T05:27:44.432Z,-28.2
2022-10-26T05:29:45.655Z,-28.4
2022-10-26T05:33:48.541Z,-28.1
2022-10-26T05:35:50.135Z,-28.4
2022-10-26T05:39:52.313Z,-28.3
2022-10-26T05:43:55.110Z,-28.4
2022-10-26T05:45:56.300Z,-28.2
2022-10-26T05:47:58.682Z,-28.4
2022-10-26T05:49:59.101Z,-28.2
2022-10-26T05:52:00.497Z,-28.2
2022-10-26T05:54:02.207Z,-28.3
2022-10-26T05:56:04.862Z,-28.3
2022-10-26T05:58:05.050Z,-28.2
2022-10-26T06:00:06.866Z,-28.5
2022-10-26T06:02:08.021Z,-28.5
2022-10-26T06:04:08.914Z,-28.3
2022-10-26T06:06:09.914Z,-28.3
2022-10-26T06:08:11.143Z,-28.3
2022-10-26T06:10:12.025Z,-28.2
2022-10-26T06:12:13.576Z,-28.2
2022-10-26T06:14:14.506Z,-28.1
2022-10-26T06:16:16.169Z,-28.2
2022-10-26T06:18:17.615Z,-28.2
2022-10-26T06:20:19.455Z,-28.3
2022-10-26T06:22:20.874Z,-28.2
2022-10-26T06:28:25.101Z,-28
2022-10-26T06:30:26.935Z,-28.2
2022-10-26T06:32:28.337Z,-28.4
2022-10-26T06:34:29.438Z,-28.5
2022-10-26T06:36:30.603Z,-28
2022-10-26T06:38:32.511Z,-28.4
2022-10-26T06:40:34.152Z,-28.4
2022-10-26T06:42:35.646Z,-28.3
2022-10-26T06:44:37.325Z,-28.4
2022-10-26T06:46:38.630Z,-28.5
2022-10-26T06:48:40.552Z,-28.2
2022-10-26T06:50:41.914Z,-28.4
2022-10-26T06:52:42.932Z,-28.6
2022-10-26T06:54:43.882Z,-28.5
2022-10-26T06:56:44.944Z,-28.4
2022-10-26T06:58:46.563Z,-28.4
2022-10-26T07:00:47.658Z,-28.6
2022-10-26T07:04:49.987Z,-28.5
2022-10-26T07:06:51.545Z,-28.3
2022-10-26T07:08:52.942Z,-28.5
2022-10-26T07:10:54.839Z,-28.3
2022-10-26T07:14:57.882Z,-28.5
2022-10-26T07:16:59.300Z,-28.5
2022-10-26T07:19:01.110Z,-28.4
2022-10-26T07:21:02.126Z,-28.5
2022-10-26T07:25:04.341Z,-28.3
2022-10-26T07:27:05.560Z,-28.3
2022-10-26T07:29:07.190Z,-28.7
2022-10-26T07:31:08.261Z,-28.3
2022-10-26T07:33:09.874Z,-28.3
2022-10-26T07:35:10.985Z,-28.3
2022-10-26T07:37:12.437Z,-28.4
2022-10-26T07:39:14.256Z,-28.3
2022-10-26T07:41:15.384Z,-28.3
2022-10-26T07:43:16.306Z,-28.4
2022-10-26T07:45:17.915Z,-28.6
2022-10-26T07:51:21.801Z,-28.3
2022-10-26T07:53:27.615Z,-28.4
2022-10-26T07:55:24.508Z,-27.8
2022-10-26T07:57:26.038Z,-24.7
2022-10-26T07:59:27.860Z,-26.9
2022-10-26T08:01:28.963Z,-25.9
2022-10-26T08:03:30.767Z,-25.3
2022-10-26T08:07:33.170Z,-28.5
2022-10-26T08:09:34.933Z,-28.4
2022-10-26T08:11:36.185Z,-28.6
2022-10-26T08:13:38.041Z,-28.5
2022-10-26T08:15:39.587Z,-28.4
2022-10-26T08:17:40.726Z,-28.6
2022-10-26T08:19:42.201Z,-28.1
2022-10-26T08:21:43.940Z,-28.6
2022-10-26T08:23:45.815Z,-28.5
2022-10-26T08:25:46.699Z,-28.4
2022-10-26T08:27:47.716Z,-28.2
2022-10-26T08:29:49.530Z,-28.6
2022-10-26T08:31:50.487Z,-28.7
2022-10-26T08:33:51.677Z,-28.4
2022-10-26T08:35:52.810Z,-28.7
2022-10-26T08:37:54.340Z,-28.4
2022-10-26T08:39:56.709Z,-28.4
2022-10-26T08:41:57.045Z,-27.3
2022-10-26T08:43:58.113Z,-27.1
2022-10-26T08:45:59.773Z,-24.9
2022-10-26T08:48:01.099Z,-20.1
2022-10-26T08:50:02.231Z,-17.4
2022-10-26T08:52:03.903Z,-12
2022-10-26T08:54:05.077Z,-6
2022-10-26T08:56:06.781Z,1.9
2022-10-26T08:58:08.306Z,7.7
2022-10-26T09:02:11.482Z,14.3
2022-10-26T09:04:12.468Z,23.6
2022-10-26T09:06:13.939Z,24
2022-10-26T09:08:15.657Z,25.2
2022-10-26T09:10:17.478Z,10.9
2022-10-26T09:12:19.153Z,16.79
2022-10-26T09:14:20.746Z,25.9
2022-10-26T09:16:21.668Z,32
2022-10-26T09:18:23.003Z,36.4
2022-10-26T09:20:24.616Z,35.3
2022-10-26T09:22:25.492Z,27.1
2022-10-26T09:24:27.206Z,17
2022-10-26T09:26:28.315Z,17.5
2022-10-26T09:28:30.037Z,8.5
2022-10-26T09:30:31.797Z,5
2022-10-26T09:32:32.704Z,-0.8
2022-10-26T09:34:33.623Z,-2.9
2022-10-26T09:38:36.478Z,-6.1
2022-10-26T09:40:38.207Z,-4.6
2022-10-26T09:42:39.439Z,-4.1
2022-10-26T09:44:40.621Z,-2.3
2022-10-26T09:48:43.177Z,3.1
2022-10-26T09:50:44.160Z,4.6
2022-10-26T09:52:45.136Z,8.3
2022-10-26T09:54:46.776Z,11.4
2022-10-26T09:56:48.470Z,10.3
2022-10-26T09:58:49.891Z,13.7
2022-10-26T10:00:51.030Z,10.1
2022-10-26T10:06:54.030Z,19.1
2022-10-26T10:10:57.046Z,82.1
2022-10-26T10:12:58.721Z,81.19
2022-10-26T10:15:00.460Z,81
2022-10-26T10:17:01.670Z,7.6
2022-10-26T10:19:02.598Z,1
2022-10-26T10:21:03.544Z,-3.1
2022-10-26T10:23:04.967Z,-3.9
2022-10-26T10:25:06.331Z,-5.1
2022-10-26T10:27:07.308Z,-5.1
2022-10-26T10:29:08.689Z,-1
2022-10-26T10:33:11.602Z,17.2
2022-10-26T10:35:13.050Z,25.2
2022-10-26T10:37:13.930Z,16.2
2022-10-26T10:39:14.936Z,31.4
2022-10-26T10:45:18.995Z,61.7
2022-10-26T10:47:20.431Z,77.69
2022-10-26T10:49:21.645Z,77.4
2022-10-26T10:51:23.345Z,76.5
2022-10-26T10:53:24.610Z,76.19
2022-10-26T10:55:26.379Z,75.6
2022-10-26T10:57:28.035Z,75.1
2022-10-26T10:59:29.561Z,74.5
2022-10-26T11:01:31.319Z,74
2022-10-26T11:03:32.980Z,73.4
2022-10-26T11:05:34.761Z,73.4
2022-10-26T11:09:37.750Z,71.9
2022-10-26T11:11:40.516Z,71.4
2022-10-26T11:13:40.342Z,70.6
2022-10-26T11:15:41.334Z,69.69
2022-10-26T11:17:42.882Z,69.3
2022-10-26T11:19:44.680Z,68.6
2022-10-26T11:21:46.270Z,68.19
2022-10-26T11:23:47.326Z,67.9
2022-10-26T11:25:48.314Z,67.3
2022-10-26T11:31:51.670Z,65.3
2022-10-26T11:33:53.364Z,64.4
2022-10-26T11:35:54.460Z,63.1
2022-10-26T11:37:55.264Z,62
2022-10-26T11:39:56.206Z,60.8
2022-10-26T11:41:57.355Z,59.5
2022-10-26T11:48:01.812Z,54.9
2022-10-26T11:50:03.254Z,54.6
2022-10-26T11:52:04.263Z,52.9
2022-10-26T11:58:08.654Z,48
2022-10-26T12:00:10.435Z,-4.4
2022-10-26T12:02:11.551Z,47.2
2022-10-26T12:04:12.594Z,43.6
2022-10-26T12:06:13.386Z,42.4
2022-10-26T12:08:15.047Z,38.8
2022-10-26T12:08:58.788Z,39.2
2022-10-26T12:13:01.305Z,32.5
2022-10-26T12:15:03.072Z,31.5
2022-10-26T12:17:04.900Z,28.5
2022-10-26T12:19:05.905Z,26.6
2022-10-26T12:23:09.273Z,23.6
2022-10-26T12:25:14.745Z,22.8
2022-10-26T12:27:12.657Z,20.1
2022-10-26T12:29:13.770Z,19.4
2022-10-26T12:31:15.297Z,18.9
2022-10-26T12:35:18.132Z,16.9
2022-10-26T12:37:19.368Z,15.9
2022-10-26T12:39:21.130Z,16.6
2022-10-26T12:41:22.497Z,15.5
2022-10-26T12:43:23.561Z,13.7
2022-10-26T12:45:25.055Z,14
2022-10-26T12:47:25.715Z,12.9
2022-10-26T12:49:26.575Z,12
2022-10-26T12:51:27.937Z,11.8
2022-10-26T12:53:29.368Z,11.3
2022-10-26T12:55:30.886Z,9.2
2022-10-26T12:57:32.197Z,9.1
2022-10-26T12:59:34.000Z,8.7
2022-10-26T13:01:35.734Z,9.39
2022-10-26T13:07:39.002Z,-28.7
2022-10-26T13:09:40.354Z,-28.4
2022-10-26T13:11:41.953Z,-28.5
2022-10-26T13:13:43.009Z,-28.6
2022-10-26T13:15:44.627Z,-28.4
2022-10-26T13:17:45.609Z,-28.2
2022-10-26T13:21:47.607Z,-28.3
2022-10-26T13:23:49.212Z,-28.5
2022-10-26T13:25:50.662Z,-28.2
2022-10-26T13:27:52.457Z,-28.3
2022-10-26T13:33:55.987Z,-28.7
2022-10-26T13:35:57.543Z,-28
2022-10-26T13:37:58.680Z,-28.7
2022-10-26T13:40:00.249Z,-28.5
2022-10-26T13:42:01.213Z,-28.2
2022-10-26T13:44:02.399Z,-28.5
2022-10-26T13:48:05.072Z,-28.8
2022-10-26T13:50:06.831Z,-28.5
2022-10-26T13:52:07.830Z,-28.6
2022-10-26T13:54:09.149Z,-28.5
2022-10-26T13:56:10.101Z,-28.5
2022-10-26T13:58:11.356Z,-28.3
2022-10-26T14:00:12.916Z,-28.6
2022-10-26T14:04:15.634Z,-28.2
2022-10-26T14:06:17.244Z,-28.3
2022-10-26T14:08:18.800Z,-28.2
2022-10-26T14:10:19.994Z,-28.5
2022-10-26T14:16:23.548Z,-28.5
2022-10-26T14:18:25.108Z,-28.2
2022-10-26T14:20:26.110Z,-28.1
2022-10-26T14:22:27.495Z,-28.2
2022-10-26T14:24:45.540Z,-28.4
2022-10-26T14:26:30.277Z,-28.4
2022-10-26T14:28:31.921Z,-28.3
2022-10-26T14:32:33.807Z,-28.3
2022-10-26T14:34:35.015Z,-28.2
2022-10-26T14:36:36.091Z,-28.4
2022-10-26T14:38:37.799Z,-28.5
2022-10-26T14:40:39.407Z,-28.4
2022-10-26T14:42:40.356Z,-28.2
2022-10-26T14:46:42.771Z,-28.5
2022-10-26T14:48:43.666Z,-28.2
2022-10-26T14:50:44.841Z,-28
2022-10-26T14:52:45.700Z,-28.3
2022-10-26T14:54:47.299Z,-28.3
2022-10-26T14:56:48.692Z,-28.2
2022-10-26T14:58:50.340Z,-28.5
2022-10-26T15:04:54.010Z,-28
2022-10-26T15:06:55.631Z,-28.3
2022-10-26T15:08:57.133Z,-28.3
2022-10-26T15:15:04.133Z,-28.4
2022-10-26T15:17:01.614Z,-28.2
2022-10-26T15:21:03.998Z,-28.2
2022-10-26T15:25:07.053Z,-28.4
2022-10-26T15:27:13.213Z,-28
2022-10-26T15:29:09.722Z,-28.2
2022-10-26T15:31:11.379Z,-28.1
2022-10-26T15:33:15.560Z,-28.3
2022-10-26T15:35:14.041Z,-28.2
2022-10-26T15:37:15.228Z,-28.2
2022-10-26T15:39:16.224Z,-28.1
2022-10-26T15:43:19.567Z,-28
2022-10-26T15:45:20.756Z,-28.5
2022-10-26T15:47:22.031Z,-28.2
2022-10-26T15:49:23.695Z,-28
2022-10-26T15:51:25.356Z,-28.4
2022-10-26T15:53:26.764Z,-28.4
2022-10-26T15:57:50.917Z,-28.3
2022-10-26T15:59:38.571Z,-28.1
2022-10-26T16:02:37.368Z,-28.2
2022-10-26T16:03:33.922Z,-28.4
2022-10-26T16:05:34.932Z,-28
2022-10-26T16:07:36.288Z,-28.3
2022-10-26T16:09:37.988Z,-28.2
2022-10-26T16:13:40.841Z,-28.1
2022-10-26T16:15:42.222Z,-28.3
2022-10-26T16:17:43.620Z,-28.3
2022-10-26T16:19:44.871Z,-28.3
2022-10-26T16:21:46.262Z,-28.4
2022-10-26T16:23:47.719Z,-28.3
2022-10-26T16:25:49.370Z,-28.3
2022-10-26T16:29:52.572Z,-28.4
2022-10-26T16:31:54.209Z,-28.6
2022-10-26T16:33:57.176Z,-28.2
2022-10-26T16:35:56.522Z,-28.2
2022-10-26T16:42:00.230Z,-28.3
2022-10-26T16:44:01.398Z,-28.2
2022-10-26T16:46:02.553Z,-28.3
2022-10-26T16:48:03.872Z,-28.2
2022-10-26T16:50:05.208Z,-28.3
2022-10-26T16:52:06.422Z,-28.2
2022-10-26T16:54:07.865Z,-28.4
2022-10-26T16:56:08.745Z,-28
2022-10-26T16:58:10.293Z,-28.2
2022-10-26T17:00:11.584Z,-28
2022-10-26T17:02:13.156Z,-27.9
2022-10-26T17:04:14.641Z,-28.2
2022-10-26T17:06:15.665Z,-28.3
2022-10-26T17:08:17.426Z,-28.2
2022-10-26T17:10:19.061Z,-28.1
2022-10-26T17:12:20.351Z,-28.3
2022-10-26T17:14:21.927Z,-28.6
2022-10-26T17:18:25.158Z,-28.3
2022-10-26T17:20:26.033Z,-28.1
2022-10-26T17:22:27.166Z,-28
2022-10-26T17:24:28.314Z,-28.1
2022-10-26T17:26:30.065Z,-28.3
2022-10-26T17:28:31.891Z,-28.4
2022-10-26T17:30:34.223Z,-28.3
2022-10-26T17:32:34.515Z,-28.3
2022-10-26T17:34:36.044Z,-28.3
2022-10-26T17:40:40.301Z,-28.2
2022-10-26T17:42:41.467Z,-28.4
2022-10-26T17:44:43.032Z,-28.3
2022-10-26T17:46:44.603Z,-28.3
2022-10-26T17:48:45.891Z,-28.2
2022-10-26T17:50:47.781Z,-28.3
2022-10-26T17:52:49.384Z,-28.5
2022-10-26T17:54:51.100Z,-28.4
2022-10-26T17:56:52.504Z,-28.2
2022-10-26T18:00:55.508Z,-28
2022-10-26T18:04:59.518Z,-28.4
2022-10-26T18:07:00.318Z,-28.2
2022-10-26T18:11:02.230Z,-28.2
2022-10-26T18:13:03.705Z,-28.3
2022-10-26T18:15:05.174Z,-28.5
2022-10-26T18:17:06.305Z,-28.4
2022-10-26T18:21:09.875Z,-28.2
2022-10-26T18:23:11.349Z,-27.9
2022-10-26T18:25:13.147Z,-28
2022-10-26T18:27:14.092Z,-28.4
2022-10-26T18:31:16.940Z,-28
2022-10-26T18:33:17.957Z,-28
2022-10-26T18:35:19.574Z,-28.3
2022-10-26T18:37:20.493Z,-28.4
2022-10-26T18:39:22.012Z,-28
2022-10-26T18:41:23.364Z,-28.2
2022-10-26T18:43:24.966Z,-28
2022-10-26T18:45:26.703Z,-28.2
2022-10-26T18:49:29.854Z,-28.3
2022-10-26T18:53:32.875Z,-28.2
2022-10-26T18:54:16.652Z,-28
2022-10-26T19:00:20.933Z,-28.4
2022-10-26T19:06:24.553Z,-28.2
2022-10-26T19:08:27.792Z,-28.7
2022-10-26T19:10:27.454Z,-28.2
2022-10-26T19:12:28.486Z,-28.3
2022-10-26T19:14:30.291Z,-28.3
2022-10-26T19:16:46.258Z,-28.3
2022-10-26T19:18:33.017Z,-28.3
2022-10-26T19:20:35.995Z,-28.1
2022-10-26T19:22:35.964Z,-28.2
2022-10-26T19:24:37.299Z,-28.4
2022-10-26T19:26:41.222Z,-28
2022-10-26T19:28:39.444Z,-28.4
2022-10-26T19:30:41.124Z,-28.4
2022-10-26T19:32:42.841Z,-28.4
2022-10-26T19:34:44.437Z,-28.2
2022-10-26T19:36:45.715Z,-28.2
2022-10-26T19:38:47.402Z,-28.3
2022-10-26T19:40:49.101Z,-28.3
2022-10-26T19:42:50.192Z,-28.3
2022-10-26T19:44:52.087Z,-28.3
2022-10-26T19:46:52.976Z,-28.2
2022-10-26T19:48:54.710Z,-28.3
2022-10-26T19:50:55.855Z,-28.2
2022-10-26T19:52:57.266Z,-28.3
2022-10-26T19:57:00.849Z,-28.3
2022-10-26T19:59:02.256Z,-28.1
2022-10-26T20:01:03.883Z,-28
2022-10-26T20:03:04.777Z,-28.2
2022-10-26T20:05:06.622Z,-28.3
2022-10-26T20:07:07.837Z,-28
2022-10-26T20:09:09.245Z,-28.3
2022-10-26T20:11:11.723Z,-28.2
2022-10-26T20:13:12.164Z,-28.1
2022-10-26T20:15:13.655Z,-28
2022-10-26T20:19:16.201Z,-28.3
2022-10-26T20:21:17.739Z,-28.3
2022-10-26T20:23:18.827Z,-28.4
2022-10-26T20:25:20.519Z,-28.3
2022-10-26T20:27:22.395Z,-27.9
2022-10-26T20:29:23.961Z,-28.2
2022-10-26T20:31:25.517Z,-28.2
2022-10-26T20:33:26.646Z,-28.4
2022-10-26T20:35:28.301Z,-28.3
2022-10-26T20:41:32.004Z,-28.3
2022-10-26T20:43:33.766Z,-28.3
2022-10-26T20:45:35.277Z,-28.1
2022-10-26T20:47:37.098Z,-28.3
2022-10-26T20:49:38.028Z,-27.9
2022-10-26T20:51:39.879Z,-28.5
2022-10-26T20:53:40.618Z,-28.4
2022-10-26T20:55:41.742Z,-28.2
2022-10-26T20:57:43.425Z,-28.2
2022-10-26T20:59:45.023Z,-28.2
2022-10-26T21:01:46.648Z,-27.9
2022-10-26T21:05:49.549Z,-28.2
2022-10-26T21:07:50.805Z,-28.4
2022-10-26T21:11:53.434Z,-28.3
2022-10-26T21:13:54.587Z,-28.4
2022-10-26T21:15:56.463Z,-28.2
2022-10-26T21:17:58.347Z,-28.3
2022-10-26T21:22:01.200Z,-28.3
2022-10-26T21:24:02.758Z,-28.3
2022-10-26T21:26:03.809Z,-28.3
2022-10-26T21:28:05.356Z,-28.4
2022-10-26T21:30:06.460Z,-28.3
2022-10-26T21:32:07.388Z,-28.1
2022-10-26T21:34:08.400Z,-28.4
2022-10-26T21:36:09.934Z,-28.3
2022-10-26T21:38:11.074Z,-28.2
2022-10-26T21:40:12.237Z,-28.2
2022-10-26T21:42:13.634Z,-28.4
2022-10-26T21:44:25.965Z,-28.4
2022-10-26T21:46:16.687Z,-28.4
2022-10-26T21:48:17.598Z,-28.3
2022-10-26T21:50:19.500Z,-28.2
2022-10-26T21:54:21.877Z,-28.4
2022-10-26T21:56:23.657Z,-28.4
2022-10-26T21:58:25.523Z,-28
2022-10-26T22:00:27.273Z,-28
2022-10-26T22:02:28.786Z,-28.3
2022-10-26T22:04:29.791Z,-28.3
2022-10-26T22:06:30.711Z,-28.3
2022-10-26T22:08:31.655Z,-28.2
2022-10-26T22:10:33.247Z,-28.2
2022-10-26T22:12:34.784Z,-28.4
2022-10-26T22:14:36.739Z,-28.1
2022-10-26T22:16:38.627Z,-28.2
2022-10-26T22:18:39.725Z,-28.4
2022-10-26T22:22:42.358Z,-28.3
2022-10-26T22:24:43.918Z,-28.4
2022-10-26T22:26:45.148Z,-28.3
2022-10-26T22:28:46.661Z,-28.1
2022-10-26T22:30:48.573Z,-28.2
2022-10-26T22:32:50.401Z,-28
2022-10-26T22:35:00.216Z,-28.3
2022-10-26T22:36:52.622Z,-28
2022-10-26T22:38:53.619Z,-28.1
2022-10-26T22:42:56.996Z,-28.7
2022-10-26T22:44:58.609Z,-28.2
2022-10-26T22:47:00.254Z,-28.2
2022-10-26T22:49:01.340Z,-28.3
2022-10-26T22:51:03.019Z,-28.4
2022-10-26T22:53:04.112Z,-28.5
2022-10-26T22:55:04.978Z,-28.4
2022-10-26T22:57:06.210Z,-28.2
2022-10-26T23:03:10.387Z,-28.1
2022-10-26T23:07:13.193Z,-28
2022-10-26T23:09:15.096Z,-28.2
2022-10-26T23:11:16.615Z,-28.4
2022-10-26T23:13:17.873Z,-28.3
2022-10-26T23:15:19.653Z,-28.1
2022-10-26T23:17:21.477Z,-28
2022-10-26T23:23:25.511Z,-28.4
2022-10-26T23:25:27.025Z,-28.2
2022-10-26T23:31:31.094Z,-28.5
2022-10-26T23:33:32.610Z,-28.2
2022-10-26T23:35:33.613Z,-28.2
2022-10-26T23:37:35.224Z,-28.4
2022-10-26T23:39:36.766Z,-28.2
2022-10-26T23:41:37.937Z,-28.2
2022-10-26T23:43:38.890Z,-28.3
2022-10-26T23:45:40.454Z,-28.3
2022-10-26T23:47:42.218Z,-28.3
2022-10-26T23:49:43.860Z,-28.2
2022-10-26T23:51:45.145Z,-28.4
2022-10-26T23:53:46.867Z,-28.2
2022-10-26T23:55:48.656Z,-28.2
2022-10-26T23:57:49.905Z,-28.5
2022-10-26T23:59:51.087Z,-28.2
